Time;durP1;ratioP1;P1;durP2;ratioP2;P2;SDS_P1;SDS_P2;PMS_P1;PMS_P2;Temp;Humidity;BMP_temperature;BMP_pressure;BME280_temperature;BME280_humidity;BME280_pressure;Samples;Min_cycle;Max_cycle;Signal;HPM_P1;HPM_P2
2023/07/14 00:01:25;;;;;;;5.25;2.35;;;;;;;22.34;47.81;100173.72;6067431;23;20024;-86
2023/07/14 00:03:52;;;;;;;4.32;2.42;;;;;;;22.31;47.60;100187.63;6064295;23;20522;-87
2023/07/14 00:06:19;;;;;;;5.50;2.05;;;;;;;22.31;47.53;100174.09;6043550;23;20022;-87
2023/07/14 00:08:46;;;;;;;4.10;1.92;;;;;;;22.30;47.63;100173.28;6019265;23;20061;-87
2023/07/14 00:11:15;;;;;;;5.28;2.13;;;;;;;22.29;47.13;100168.09;6065098;23;20139;-87
2023/07/14 00:13:42;;;;;;;5.50;2.10;;;;;;;22.24;47.68;100174.13;6065779;23;20833;-86
2023/07/14 00:16:12;;;;;;;3.50;1.95;;;;;;;22.22;47.65;100186.16;6090401;23;20030;-86
2023/07/14 00:18:39;;;;;;;5.22;1.95;;;;;;;22.18;47.69;100176.75;6066425;23;20358;-86
2023/07/14 00:21:14;;;;;;;4.07;2.20;;;;;;;22.10;48.18;100175.06;6066135;23;20033;-86
2023/07/14 00:23:40;;;;;;;5.18;1.80;;;;;;;22.15;47.94;100172.59;6065304;23;20024;-86
2023/07/14 00:26:13;;;;;;;4.63;1.83;;;;;;;22.10;48.30;100181.31;6066344;23;20030;-86
2023/07/14 00:28:42;;;;;;;2.35;1.77;;;;;;;22.10;48.01;100180.47;6041747;23;20336;-86
2023/07/14 00:31:17;;;;;;;4.88;2.10;;;;;;;22.01;48.53;100173.59;6067039;23;20405;-86
2023/07/14 00:33:45;;;;;;;2.97;1.90;;;;;;;22.05;48.29;100170.25;6066583;23;20025;-85
2023/07/14 00:36:12;;;;;;;5.32;2.03;;;;;;;22.03;48.25;100166.09;6089943;23;20033;-87
2023/07/14 00:38:39;;;;;;;4.32;1.80;;;;;;;22.01;47.98;100158.19;6065025;23;20506;-86
2023/07/14 00:41:14;;;;;;;3.80;1.95;;;;;;;21.97;48.23;100164.19;6067080;23;20114;-86
2023/07/14 00:43:42;;;;;;;4.70;2.00;;;;;;;21.96;48.13;100159.84;6017445;23;20451;-87
2023/07/14 00:46:23;;;;;;;6.45;2.22;;;;;;;21.86;48.93;100171.84;6042636;23;20454;-86
2023/07/14 00:48:53;;;;;;;5.32;2.00;;;;;;;21.91;48.32;100165.03;6064913;23;20085;-86
2023/07/14 00:51:21;;;;;;;4.13;1.90;;;;;;;21.91;48.54;100165.03;6065781;23;20506;-86
2023/07/14 00:53:48;;;;;;;4.10;2.17;;;;;;;21.87;48.21;100165.41;6066390;23;20022;-86
2023/07/14 00:56:33;;;;;;;1.83;1.70;;;;;;;21.70;49.00;100155.97;6042810;23;20358;-87
2023/07/14 00:59:00;;;;;;;2.45;1.77;;;;;;;21.78;48.27;100160.38;6064986;23;20033;-86
2023/07/14 01:01:31;;;;;;;5.40;2.05;;;;;;;21.73;48.62;100146.63;6065396;23;20037;-86
2023/07/14 01:03:59;;;;;;;5.10;2.00;;;;;;;21.72;48.89;100151.19;6042499;23;20030;-86
2023/07/14 01:06:33;;;;;;;3.53;1.92;;;;;;;21.64;49.27;100144.09;6089972;23;20077;-87
2023/07/14 01:09:08;;;;;;;3.95;2.05;;;;;;;21.60;49.43;100140.13;6090054;23;20025;-86
2023/07/14 01:11:42;;;;;;;5.75;1.70;;;;;;;21.60;49.24;100142.84;6065022;23;20018;-86
2023/07/14 01:14:36;;;;;;;7.18;2.35;;;;;;;21.50;50.21;100136.13;6064985;23;20033;-86
2023/07/14 01:17:04;;;;;;;6.70;2.22;;;;;;;21.62;49.21;100137.22;6060913;23;20113;-86
2023/07/14 01:19:59;;;;;;;2.92;1.80;;;;;;;21.51;49.55;100132.41;6065789;23;20025;-86
2023/07/14 01:23:01;;;;;;;4.55;2.15;;;;;;;21.41;50.00;100132.75;6065721;23;20481;-86
2023/07/14 01:25:38;;;;;;;6.25;2.45;;;;;;;21.46;49.47;100131.13;6066512;23;20025;-86
2023/07/14 01:28:10;;;;;;;2.50;2.00;;;;;;;21.45;49.09;100140.25;6066586;23;20026;-87
2023/07/14 01:30:38;;;;;;;5.00;2.40;;;;;;;21.48;49.25;100138.19;6065885;23;20052;-86
2023/07/14 01:33:15;;;;;;;4.40;2.38;;;;;;;21.44;49.10;100138.56;6065839;23;20046;-85
2023/07/14 01:35:48;;;;;;;3.83;2.08;;;;;;;21.38;49.31;100141.22;6017377;23;20042;-86
2023/07/14 01:38:15;;;;;;;;;;;;;;;21.15;49.88;100146.91;6090727;23;20041;-86
2023/07/14 01:40:42;;;;;;;4.15;2.08;;;;;;;21.31;49.41;100130.38;6113289;23;19920;-85
2023/07/14 01:43:09;;;;;;;6.65;2.40;;;;;;;21.33;49.50;100143.69;6017003;23;20030;-86
2023/07/14 01:45:42;;;;;;;3.03;1.80;;;;;;;21.28;49.59;100144.28;6042093;23;20045;-86
2023/07/14 01:48:14;;;;;;;4.95;2.05;;;;;;;21.22;49.92;100137.81;6114066;23;20029;-87
2023/07/14 01:51:03;;;;;;;3.35;1.70;;;;;;;21.11;50.72;100140.22;6042136;23;20101;-87
2023/07/14 01:53:35;;;;;;;1.80;1.70;;;;;;;21.20;49.92;100139.03;6018959;23;20113;-88
2023/07/14 01:56:12;;;;;;;3.55;2.28;;;;;;;21.12;50.30;100137.31;6044121;23;20081;-86
2023/07/14 01:58:59;;;;;;;2.83;1.98;;;;;;;21.08;50.42;100138.75;6043529;23;20018;-87
2023/07/14 02:01:27;;;;;;;7.18;2.35;;;;;;;21.15;49.87;100139.63;6020479;23;20018;-87
2023/07/14 02:03:56;;;;;;;3.15;1.90;;;;;;;21.13;49.75;100135.47;6066419;23;20026;-86
2023/07/14 02:06:23;;;;;;;3.78;2.08;;;;;;;21.13;50.00;100138.97;6044111;23;20025;-87
2023/07/14 02:08:51;;;;;;;2.83;2.00;;;;;;;21.08;50.25;100141.44;6068059;23;20014;-86
2023/07/14 02:11:20;;;;;;;2.28;2.00;;;;;;;21.07;49.92;100142.47;6043498;23;20068;-86
2023/07/14 02:13:51;;;;;;;3.00;2.00;;;;;;;21.05;50.06;100141.00;6042444;23;20575;-86
2023/07/14 02:16:19;;;;;;;6.00;1.77;;;;;;;21.01;50.18;100145.94;6044238;23;20026;-86
2023/07/14 02:18:47;;;;;;;4.78;1.90;;;;;;;20.98;50.31;100140.94;6067351;23;20044;-86
2023/07/14 02:21:20;;;;;;;4.18;2.22;;;;;;;20.91;50.45;100138.19;6044413;23;20085;-86
2023/07/14 02:23:48;;;;;;;3.08;2.10;;;;;;;20.91;50.51;100138.19;6091044;23;20018;-87
2023/07/14 02:26:32;;;;;;;3.17;1.90;;;;;;;20.78;50.96;100140.78;6067154;23;20676;-86
2023/07/14 02:28:59;;;;;;;5.10;2.53;;;;;;;20.88;50.65;100140.44;6065496;23;20054;-86
2023/07/14 02:31:28;;;;;;;3.50;1.95;;;;;;;20.86;50.56;100134.41;6044145;23;20042;-86
2023/07/14 02:33:56;;;;;;;6.30;1.90;;;;;;;20.86;50.36;100132.53;6090536;23;20033;-86
2023/07/14 02:36:35;;;;;;;4.13;1.95;;;;;;;20.87;50.45;100136.94;6066737;23;20451;-85
2023/07/14 02:39:03;;;;;;;2.92;2.22;;;;;;;20.86;50.38;100131.72;6067179;23;20018;-86
2023/07/14 02:41:33;;;;;;;3.22;2.03;;;;;;;20.83;50.31;100132.94;6090223;23;20510;-86
2023/07/14 02:44:03;;;;;;;3.42;1.90;;;;;;;20.83;50.23;100132.94;6042047;23;20034;-87
2023/07/14 02:46:47;;;;;;;3.72;2.00;;;;;;;20.68;50.84;100133.00;6044226;23;20521;-86
2023/07/14 02:49:14;;;;;;;4.38;2.30;;;;;;;20.75;50.50;100128.50;6067089;23;20025;-86
2023/07/14 02:51:41;;;;;;;2.55;1.80;;;;;;;20.73;50.37;100129.75;6066349;23;20030;-86
2023/07/14 02:54:08;;;;;;;4.00;2.00;;;;;;;20.70;50.80;100140.94;6090510;23;20077;-86
2023/07/14 02:56:35;;;;;;;3.40;1.92;;;;;;;20.70;50.36;100138.22;6067372;23;20057;-85
2023/07/14 02:59:03;;;;;;;4.90;2.25;;;;;;;20.66;50.46;100139.63;6067763;23;20030;-85
2023/07/14 03:01:32;;;;;;;5.82;1.88;;;;;;;20.63;50.29;100137.34;6043010;23;20030;-86
2023/07/14 03:04:00;;;;;;;2.30;1.90;;;;;;;20.63;50.82;100132.75;6042738;23;20089;-86
2023/07/14 03:06:27;;;;;;;2.42;1.80;;;;;;;20.61;50.54;100126.75;6019730;23;20026;-86
2023/07/14 03:08:54;;;;;;;2.95;1.63;;;;;;;20.57;50.52;100128.16;6067623;23;20786;-86
2023/07/14 03:11:20;;;;;;;2.97;1.63;;;;;;;20.56;50.73;100118.41;6043022;23;20014;-86
2023/07/14 03:13:47;;;;;;;3.20;1.80;;;;;;;20.53;50.71;100122.28;6065096;23;20028;-86
2023/07/14 03:16:15;;;;;;;6.97;2.25;;;;;;;20.49;50.68;100115.59;6019874;23;20080;-86
2023/07/14 03:18:43;;;;;;;2.22;1.90;;;;;;;20.46;50.80;100118.69;6066396;23;20484;-86
2023/07/14 03:21:10;;;;;;;5.20;2.15;;;;;;;20.44;50.68;100128.00;6090439;23;20524;-86
2023/07/14 03:23:37;;;;;;;2.50;1.75;;;;;;;20.39;50.82;100128.59;6066306;23;20030;-86
2023/07/14 03:26:07;;;;;;;3.10;1.98;;;;;;;20.39;50.82;100128.59;6067181;23;20020;-86
2023/07/14 03:28:35;;;;;;;4.30;2.10;;;;;;;20.39;50.82;100133.97;6054581;23;20080;-87
2023/07/14 03:31:02;;;;;;;3.75;1.75;;;;;;;20.36;50.98;100132.50;6066967;23;20026;-85
2023/07/14 03:33:30;;;;;;;4.82;2.20;;;;;;;20.36;50.85;100120.88;6092432;23;20503;-87
2023/07/14 03:36:05;;;;;;;3.80;1.77;;;;;;;20.26;51.23;100126.59;6046568;23;20024;-87
2023/07/14 03:38:43;;;;;;;3.47;2.25;;;;;;;20.23;51.41;100118.88;6092891;23;20049;-87
2023/07/14 03:41:11;;;;;;;4.97;1.90;;;;;;;20.27;51.14;100116.63;6069155;23;20450;-87
2023/07/14 03:43:39;;;;;;;3.53;1.83;;;;;;;20.26;51.30;100117.66;6065635;23;20022;-87
2023/07/14 03:46:07;;;;;;;4.28;2.05;;;;;;;20.27;51.37;100114.75;6044311;23;20034;-88
2023/07/14 03:48:34;;;;;;;9.38;2.05;;;;;;;20.24;51.55;100120.53;6091780;23;20026;-87
2023/07/14 03:51:04;;;;;;;3.35;2.08;;;;;;;20.25;51.32;100118.69;6021701;23;20018;-87
2023/07/14 03:53:31;;;;;;;5.25;2.10;;;;;;;20.28;51.22;100112.91;6069763;23;20097;-87
2023/07/14 03:55:58;;;;;;;7.03;2.15;;;;;;;20.28;51.38;100116.44;6068131;23;20106;-87
2023/07/14 03:58:27;;;;;;;2.85;1.70;;;;;;;20.38;51.08;100108.03;6021176;23;20130;-87
2023/07/14 04:00:59;;;;;;;6.18;2.00;;;;;;;20.67;50.94;100106.25;6069363;23;20390;-87
2023/07/14 04:03:26;;;;;;;4.32;2.13;;;;;;;21.13;50.65;100111.16;6036638;23;20026;-79
2023/07/14 04:05:53;;;;;;;3.85;2.20;;;;;;;21.48;49.66;100108.47;6063969;23;20093;-79
2023/07/14 04:08:21;;;;;;;4.43;2.15;;;;;;;21.61;49.08;100108.53;6061770;23;20034;-79
2023/07/14 04:10:48;;;;;;;4.53;2.08;;;;;;;21.55;48.61;100107.47;6086471;23;20580;-79
2023/07/14 04:13:15;;;;;;;3.42;1.92;;;;;;;21.28;48.34;100105.63;6110381;23;20022;-79
2023/07/14 04:15:41;;;;;;;4.18;2.05;;;;;;;21.06;48.64;100102.16;6061708;23;20518;-79
2023/07/14 04:18:14;;;;;;;2.63;2.10;;;;;;;20.84;48.90;100093.28;6086640;23;20454;-78
2023/07/14 04:20:41;;;;;;;4.22;2.10;;;;;;;20.72;49.18;100104.63;6085726;23;20018;-79
2023/07/14 04:23:08;;;;;;;3.63;2.00;;;;;;;20.63;49.80;100103.09;6061317;23;20033;-81
2023/07/14 04:25:35;;;;;;;3.88;2.22;;;;;;;20.56;49.82;100105.75;6085335;23;20029;-80
2023/07/14 04:28:02;;;;;;;3.50;2.00;;;;;;;20.54;50.00;100106.94;6086545;23;20088;-80
2023/07/14 04:30:30;;;;;;;6.95;2.50;;;;;;;20.52;49.96;100112.50;6111395;23;20026;-80
2023/07/14 04:32:58;;;;;;;2.65;2.15;;;;;;;20.48;50.26;100105.00;6084301;23;20618;-79
2023/07/14 04:35:25;;;;;;;4.22;2.22;;;;;;;20.44;50.26;100098.34;6039005;23;20392;-79
2023/07/14 04:37:52;;;;;;;4.93;2.20;;;;;;;20.44;50.41;100101.03;6084558;23;20410;-79
2023/07/14 04:40:19;;;;;;;9.05;2.60;;;;;;;20.39;50.26;100096.22;6087269;23;20393;-88
2023/07/14 04:43:02;;;;;;;6.50;2.92;;;;;;;20.36;50.70;100099.31;6027720;23;20033;-88
2023/07/14 04:45:29;;;;;;;6.88;2.53;;;;;;;20.35;50.40;100093.06;6092254;23;20018;-87
2023/07/14 04:47:56;;;;;;;4.13;2.10;;;;;;;20.36;50.60;100096.59;6063405;23;20048;-86
2023/07/14 04:50:25;;;;;;;8.10;2.63;;;;;;;20.32;50.90;100093.44;6068392;23;20029;-86
2023/07/14 04:52:52;;;;;;;4.78;2.47;;;;;;;20.32;50.72;100085.34;6067698;23;20101;-87
2023/07/14 04:55:19;;;;;;;5.25;2.63;;;;;;;20.30;50.79;100097.34;6044561;23;20026;-87
2023/07/14 04:57:46;;;;;;;4.80;2.70;;;;;;;20.32;50.74;100095.31;6091295;23;20029;-87
2023/07/14 05:00:13;;;;;;;4.25;2.40;;;;;;;20.34;50.92;100093.25;6068474;23;20022;-87
2023/07/14 05:02:40;;;;;;;4.57;2.80;;;;;;;20.31;51.06;100083.69;6043938;23;20386;-88
2023/07/14 05:05:16;;;;;;;3.45;2.08;;;;;;;20.33;50.99;100086.22;6044218;23;20029;-87
2023/07/14 05:07:43;;;;;;;5.85;2.25;;;;;;;20.38;50.93;100083.78;6068598;23;20042;-87
2023/07/14 05:10:10;;;;;;;9.15;2.70;;;;;;;20.41;50.89;100079.84;6067549;23;20427;-87
2023/07/14 05:12:37;;;;;;;7.13;2.28;;;;;;;20.39;51.13;100077.34;6067822;23;20026;-87
2023/07/14 05:15:06;;;;;;;6.88;2.70;;;;;;;20.43;51.01;100083.16;6044044;23;20031;-87
2023/07/14 05:17:34;;;;;;;5.95;2.50;;;;;;;20.45;51.16;100075.72;6092134;23;20096;-87
2023/07/14 05:20:01;;;;;;;5.82;2.40;;;;;;;20.45;51.25;100071.16;6021002;23;20030;-86
2023/07/14 05:22:28;;;;;;;3.13;2.20;;;;;;;20.45;51.38;100076.53;6068091;23;20065;-87
2023/07/14 05:24:55;;;;;;;8.70;2.60;;;;;;;20.46;51.24;100075.53;6067874;23;20085;-87
2023/07/14 05:27:22;;;;;;;6.95;2.70;;;;;;;20.46;51.25;100074.72;6067521;23;20097;-88
2023/07/14 05:29:49;;;;;;;4.22;2.50;;;;;;;20.47;51.60;100068.28;6091956;23;20047;-86
2023/07/14 05:32:16;;;;;;;5.25;2.92;;;;;;;20.48;51.43;100072.63;6067780;23;20022;-86
2023/07/14 05:34:43;;;;;;;5.43;3.10;;;;;;;20.48;51.78;100070.78;6020531;23;20018;-88
2023/07/14 05:37:11;;;;;;;6.63;2.80;;;;;;;20.47;51.66;100070.97;6044599;23;20446;-87
2023/07/14 05:39:38;;;;;;;6.45;2.55;;;;;;;20.53;51.50;100076.44;6091043;23;20022;-87
2023/07/14 05:42:05;;;;;;;5.43;2.80;;;;;;;20.58;51.62;100087.50;6043645;23;20048;-87
2023/07/14 05:44:32;;;;;;;7.18;2.85;;;;;;;20.65;51.67;100076.75;6067130;23;20073;-87
2023/07/14 05:46:58;;;;;;;4.10;2.53;;;;;;;20.71;51.63;100089.47;6091336;23;20053;-87
2023/07/14 05:49:25;;;;;;;3.58;2.40;;;;;;;20.71;51.40;100077.81;6043364;23;20339;-87
2023/07/14 05:51:52;;;;;;;5.57;2.72;;;;;;;20.68;51.64;100073.66;6068063;23;20022;-88
2023/07/14 05:54:22;;;;;;;3.97;2.38;;;;;;;20.67;51.71;100074.69;6067595;23;20465;-87
2023/07/14 05:56:50;;;;;;;6.15;2.92;;;;;;;20.64;51.46;100071.56;6091122;23;20030;-87
2023/07/14 05:59:17;;;;;;;3.17;2.38;;;;;;;20.64;51.17;100071.56;6068395;23;20454;-87
2023/07/14 06:01:47;;;;;;;5.05;2.70;;;;;;;20.65;51.13;100070.53;6067064;23;20022;-86
2023/07/14 06:04:15;;;;;;;4.65;2.60;;;;;;;20.66;50.90;100064.94;6067074;23;20029;-87
2023/07/14 06:06:42;;;;;;;3.65;2.30;;;;;;;20.69;50.93;100061.84;6067242;23;20085;-86
2023/07/14 06:09:09;;;;;;;7.75;2.40;;;;;;;20.71;50.75;100064.34;6020018;23;20026;-86
2023/07/14 06:11:36;;;;;;;4.68;2.25;;;;;;;20.77;50.59;100050.91;6091654;23;20022;-87
2023/07/14 06:14:03;;;;;;;4.32;3.20;;;;;;;20.88;50.56;100049.50;6067503;23;20517;-86
2023/07/14 06:16:29;;;;;;;6.40;2.50;;;;;;;20.92;50.71;100040.00;6091679;23;20041;-86
2023/07/14 06:18:56;;;;;;;3.28;2.35;;;;;;;21.02;50.40;100039.66;6068526;23;20338;-87
2023/07/14 06:21:23;;;;;;;6.03;2.78;;;;;;;21.06;50.26;100035.50;6067239;23;20382;-88
2023/07/14 06:23:50;;;;;;;3.97;2.13;;;;;;;21.06;50.42;100031.97;6043932;23;20077;-87
2023/07/14 06:26:17;;;;;;;5.10;3.03;;;;;;;21.07;50.64;100033.66;6043986;23;20439;-87
2023/07/14 06:28:43;;;;;;;7.78;2.40;;;;;;;21.03;50.64;100033.19;6067316;23;20386;-88
2023/07/14 06:31:13;;;;;;;3.38;2.40;;;;;;;21.04;50.78;100037.59;6068305;23;20050;-87
2023/07/14 06:33:40;;;;;;;3.33;2.80;;;;;;;21.05;51.12;100041.13;6044128;23;20081;-87
2023/07/14 06:36:07;;;;;;;5.97;2.30;;;;;;;21.02;51.32;100035.06;6090864;23;20034;-87
2023/07/14 06:38:34;;;;;;;5.65;2.85;;;;;;;21.07;51.13;100047.97;6093002;23;20382;-87
2023/07/14 06:41:03;;;;;;;3.45;2.42;;;;;;;21.09;51.02;100037.81;6069133;23;20034;-87
2023/07/14 06:43:31;;;;;;;5.95;2.60;;;;;;;21.11;51.11;100026.81;6046050;23;20486;-87
2023/07/14 06:45:59;;;;;;;4.60;2.47;;;;;;;21.18;51.35;100024.97;6045537;23;20026;-88
2023/07/14 06:48:26;;;;;;;8.63;3.17;;;;;;;21.23;51.35;100014.41;6093594;23;20122;-87
2023/07/14 06:50:53;;;;;;;5.15;2.58;;;;;;;21.30;51.37;99999.06;6093971;23;20024;-87
2023/07/14 06:53:21;;;;;;;4.82;2.53;;;;;;;21.35;50.97;100014.69;6092794;23;20053;-88
2023/07/14 06:55:47;;;;;;;5.88;2.70;;;;;;;21.39;51.16;100015.94;6045098;23;20370;-87
2023/07/14 06:58:14;;;;;;;4.68;2.88;;;;;;;21.41;50.75;100008.47;6069926;23;20325;-87
2023/07/14 07:00:41;;;;;;;5.03;2.72;;;;;;;21.46;50.93;100014.13;6068921;23;20022;-86
2023/07/14 07:03:08;;;;;;;6.78;2.88;;;;;;;21.52;51.13;100009.75;6069959;23;20018;-86
2023/07/14 07:05:40;;;;;;;6.53;2.33;;;;;;;21.53;51.01;100017.69;6093188;23;20026;-87
2023/07/14 07:08:12;;;;;;;5.50;2.33;;;;;;;21.57;51.03;100009.97;6069311;23;20024;-87
2023/07/14 07:10:43;;;;;;;2.83;2.53;;;;;;;21.53;50.75;100008.75;6044944;23;20128;-87
2023/07/14 07:13:11;;;;;;;3.40;2.45;;;;;;;21.60;50.94;100009.56;6093211;23;20109;-87
2023/07/14 07:15:39;;;;;;;3.72;2.50;;;;;;;21.62;50.92;100004.81;6093168;23;20028;-87
2023/07/14 07:18:06;;;;;;;5.85;2.70;;;;;;;21.64;51.01;99998.16;6068674;23;20076;-87
2023/07/14 07:20:40;;;;;;;3.47;2.55;;;;;;;21.69;51.40;100002.94;6045267;23;20373;-86
2023/07/14 07:23:07;;;;;;;2.95;2.30;;;;;;;21.72;50.94;100004.41;6045359;23;20029;-87
2023/07/14 07:25:34;;;;;;;4.43;2.63;;;;;;;21.74;51.11;100013.16;6069354;23;20057;-87
2023/07/14 07:28:01;;;;;;;4.85;2.50;;;;;;;21.76;50.78;100003.81;6069087;23;20501;-87
2023/07/14 07:30:28;;;;;;;5.32;2.25;;;;;;;21.78;50.63;100009.00;6069346;23;20030;-87
2023/07/14 07:32:54;;;;;;;4.93;2.20;;;;;;;21.81;50.61;100005.91;6093064;23;20131;-88
2023/07/14 07:35:21;;;;;;;4.95;2.22;;;;;;;21.84;50.75;99998.22;6068780;23;20021;-87
2023/07/14 07:37:48;;;;;;;4.32;2.33;;;;;;;21.91;50.53;100000.09;6068620;23;20025;-87
2023/07/14 07:40:15;;;;;;;5.93;2.40;;;;;;;21.92;50.48;100001.75;6093059;23;20176;-87
2023/07/14 07:42:42;;;;;;;2.88;2.20;;;;;;;21.97;50.20;99996.56;6045597;23;20466;-88
2023/07/14 07:45:09;;;;;;;3.95;2.10;;;;;;;21.98;49.86;99990.09;6044871;23;20018;-87
2023/07/14 07:47:36;;;;;;;7.22;2.95;;;;;;;22.01;49.87;99995.13;6093084;23;20338;-87
2023/07/14 07:50:03;;;;;;;5.07;2.47;;;;;;;22.00;49.99;99986.16;6092633;23;20068;-87
2023/07/14 07:52:32;;;;;;;3.97;2.30;;;;;;;22.04;50.20;99989.31;6068110;23;20454;-87
2023/07/14 07:54:59;;;;;;;3.83;2.25;;;;;;;22.06;50.51;99977.22;6068583;23;20343;-87
2023/07/14 07:57:25;;;;;;;7.20;2.80;;;;;;;22.10;50.16;99974.94;6021782;23;20021;-87
2023/07/14 07:59:52;;;;;;;6.32;3.20;;;;;;;22.14;49.69;99978.91;6068012;23;20030;-88
2023/07/14 08:02:19;;;;;;;6.30;2.40;;;;;;;22.10;49.77;99964.13;6045165;23;20446;-87
2023/07/14 08:04:49;;;;;;;7.20;2.65;;;;;;;22.13;49.69;99974.50;6092176;23;20034;-86
2023/07/14 08:07:16;;;;;;;5.45;2.67;;;;;;;22.15;49.81;99977.84;6093616;23;20097;-88
2023/07/14 08:09:43;;;;;;;5.03;2.10;;;;;;;22.18;49.75;99969.31;6068428;23;20088;-87
2023/07/14 08:12:10;;;;;;;7.93;2.63;;;;;;;22.22;49.54;99969.78;6044514;23;20072;-88
2023/07/14 08:14:54;;;;;;;10.35;2.83;;;;;;;22.17;49.55;99964.97;6092762;23;20093;-87
2023/07/14 08:17:26;;;;;;;4.88;2.17;;;;;;;22.24;49.51;99959.59;6045033;23;20022;-87
2023/07/14 08:19:53;;;;;;;6.07;2.63;;;;;;;22.29;49.47;99960.63;6068899;23;20409;-88
2023/07/14 08:22:22;;;;;;;5.13;2.50;;;;;;;22.35;49.89;99955.41;6068952;23;20022;-87
2023/07/14 08:24:49;;;;;;;6.85;2.95;;;;;;;22.39;50.04;99951.22;6068856;23;20092;-87
2023/07/14 08:27:16;;;;;;;6.18;2.40;;;;;;;22.48;49.70;99944.56;6067494;23;20018;-88
2023/07/14 08:29:43;;;;;;;6.10;2.38;;;;;;;22.47;49.81;99940.22;6069056;23;20044;-87
2023/07/14 08:32:10;;;;;;;7.85;2.55;;;;;;;22.53;49.68;99939.34;6092789;23;20018;-88
2023/07/14 08:34:37;;;;;;;4.10;2.45;;;;;;;22.54;49.57;99936.44;6067947;23;20446;-87
2023/07/14 08:37:04;;;;;;;8.30;2.80;;;;;;;22.59;49.81;99934.97;6044778;23;20080;-87
2023/07/14 08:39:32;;;;;;;6.95;2.25;;;;;;;22.61;49.79;99928.28;6092537;23;20021;-88
2023/07/14 08:42:10;;;;;;;5.53;2.88;;;;;;;22.66;49.55;99923.06;6069024;23;20058;-87
2023/07/14 08:44:56;;;;;;;3.47;2.35;;;;;;;22.66;49.25;99927.66;6092626;23;20026;-88
2023/07/14 08:47:35;;;;;;;4.85;2.33;;;;;;;22.70;47.99;99929.72;6092125;23;20029;-88
2023/07/14 08:50:26;;;;;;;4.60;2.40;;;;;;;22.79;48.26;99927.63;6068377;23;20021;-87
2023/07/14 08:52:54;;;;;;;3.92;2.08;;;;;;;22.83;48.06;99926.16;6043709;23;20018;-87
2023/07/14 08:55:24;;;;;;;7.80;2.60;;;;;;;22.88;48.06;99917.41;6044593;23;20030;-88
2023/07/14 08:58:02;;;;;;;6.05;2.58;;;;;;;22.88;46.80;99914.69;6044484;23;20029;-87
2023/07/14 09:00:38;;;;;;;4.40;1.75;;;;;;;22.89;46.30;99911.75;6067926;23;20048;-88
2023/07/14 09:03:15;;;;;;;4.90;2.13;;;;;;;22.92;46.68;99905.94;6091939;23;20379;-88
2023/07/14 09:05:49;;;;;;;8.25;2.13;;;;;;;22.96;47.10;99914.44;6092273;23;20030;-87
2023/07/14 09:08:16;;;;;;;3.83;1.95;;;;;;;23.06;47.00;99905.91;6091466;23;20454;-87
2023/07/14 09:10:58;;;;;;;4.72;1.90;;;;;;;23.14;46.09;99911.88;6043931;23;20093;-89
2023/07/14 09:13:40;;;;;;;3.17;1.73;;;;;;;23.14;44.76;99903.75;6068014;23;20010;-87
2023/07/14 09:16:07;;;;;;;;;;;;;;;23.10;46.05;99904.41;6044111;23;20033;-88
2023/07/14 09:18:55;;;;;;;4.68;2.00;;;;;;;23.28;45.47;99904.53;6139914;23;19925;-88
2023/07/14 09:21:31;;;;;;;6.07;1.67;;;;;;;23.39;45.14;99900.28;6068015;23;20028;-87
2023/07/14 09:24:14;;;;;;;2.15;1.73;;;;;;;23.43;45.04;99889.84;6091411;23;20335;-87
2023/07/14 09:26:49;;;;;;;2.30;1.70;;;;;;;23.55;44.86;99897.03;6091394;23;20022;-87
2023/07/14 09:29:36;;;;;;;3.20;1.73;;;;;;;23.58;44.22;99887.66;6067980;23;20089;-87
2023/07/14 09:32:05;;;;;;;6.38;1.80;;;;;;;23.69;44.37;99894.25;6046675;23;20014;-87
2023/07/14 09:34:36;;;;;;;5.45;1.83;;;;;;;23.74;43.80;99886.31;6044306;23;20516;-87
2023/07/14 09:37:20;;;;;;;3.65;1.55;;;;;;;23.73;43.51;99896.31;6042850;23;20053;-86
2023/07/14 09:39:51;;;;;;;5.03;1.88;;;;;;;23.78;43.58;99882.94;6091167;23;20021;-87
2023/07/14 09:42:27;;;;;;;5.15;2.03;;;;;;;23.77;43.05;99888.59;6092172;23;20410;-88
2023/07/14 09:45:00;;;;;;;3.67;1.90;;;;;;;23.85;42.91;99882.06;6091700;23;20022;-87
2023/07/14 09:47:28;;;;;;;3.67;1.67;;;;;;;23.90;43.29;99890.38;6091107;23;20063;-87
2023/07/14 09:49:57;;;;;;;2.20;1.52;;;;;;;23.91;42.59;99884.69;6044145;23;20046;-86
2023/07/14 09:52:28;;;;;;;4.05;1.70;;;;;;;23.90;42.38;99884.94;6066131;23;20096;-85
2023/07/14 09:54:59;;;;;;;3.55;1.90;;;;;;;23.91;42.85;99882.00;6091417;23;20029;-87
2023/07/14 09:57:29;;;;;;;4.80;1.80;;;;;;;23.92;42.75;99880.97;6092228;23;20030;-87
2023/07/14 10:00:19;;;;;;;4.03;2.03;;;;;;;23.91;42.71;99871.13;6046899;23;20358;-87
2023/07/14 10:02:58;;;;;;;2.47;1.77;;;;;;;23.93;42.73;99879.06;6090440;23;20022;-86
2023/07/14 10:05:30;;;;;;;2.13;1.77;;;;;;;23.97;42.83;99864.84;6090538;23;20076;-87
2023/07/14 10:07:57;;;;;;;3.40;2.13;;;;;;;24.01;42.52;99866.03;6091347;23;20081;-86
2023/07/14 10:10:26;;;;;;;2.30;1.88;;;;;;;24.02;42.60;99856.88;6067030;23;20394;-87
2023/07/14 10:12:53;;;;;;;4.07;2.10;;;;;;;24.04;42.75;99854.75;6093071;23;20694;-86
2023/07/14 10:15:24;;;;;;;4.35;1.90;;;;;;;24.02;42.55;99859.59;6068006;23;20029;-86
2023/07/14 10:17:55;;;;;;;6.50;2.30;;;;;;;23.99;42.24;99851.91;6068870;23;20026;-86
2023/07/14 10:20:23;;;;;;;4.72;1.90;;;;;;;24.01;42.78;99857.06;6045960;23;20080;-87
2023/07/14 10:22:54;;;;;;;4.72;1.85;;;;;;;24.03;42.87;99853.09;6069059;23;20032;-87
2023/07/14 10:25:22;;;;;;;5.85;2.00;;;;;;;24.13;42.49;99846.34;6068472;23;20018;-87
2023/07/14 10:28:10;;;;;;;5.63;2.35;;;;;;;24.15;42.69;99844.22;6044985;23;20041;-87
2023/07/14 10:30:44;;;;;;;4.72;1.80;;;;;;;24.24;42.17;99832.00;6068275;23;20062;-87
2023/07/14 10:33:21;;;;;;;3.35;1.73;;;;;;;24.23;42.20;99828.47;6069045;23;20547;-87
2023/07/14 10:35:57;;;;;;;4.13;2.08;;;;;;;24.27;42.25;99828.84;6069302;23;20081;-87
2023/07/14 10:38:32;;;;;;;3.95;2.17;;;;;;;24.33;42.43;99827.97;6045310;23;20020;-88
2023/07/14 10:41:02;;;;;;;4.72;1.90;;;;;;;24.35;42.33;99830.44;6045050;23;20041;-87
2023/07/14 10:43:33;;;;;;;4.22;2.63;;;;;;;24.36;42.05;99830.22;6093643;23;20378;-88
2023/07/14 10:46:06;;;;;;;5.50;2.13;;;;;;;24.40;41.86;99831.44;6069837;23;20034;-89
2023/07/14 10:48:34;;;;;;;;;;;;;;;24.26;42.47;99821.75;6045790;23;20468;-88
2023/07/14 10:51:10;;;;;;;3.80;2.00;;;;;;;24.40;41.92;99822.44;6141729;23;19925;-87
2023/07/14 10:53:43;;;;;;;5.38;2.35;;;;;;;24.43;41.82;99822.00;6093291;23;20413;-88
2023/07/14 10:56:34;;;;;;;5.90;2.40;;;;;;;24.38;41.93;99811.00;6070117;23;20038;-88
2023/07/14 10:59:15;;;;;;;3.28;2.35;;;;;;;24.44;41.78;99818.22;6068752;23;20434;-88
2023/07/14 11:01:56;;;;;;;3.30;2.28;;;;;;;24.45;41.23;99812.59;6069536;23;20112;-88
2023/07/14 11:04:29;;;;;;;3.30;2.17;;;;;;;24.47;41.66;99810.50;6045015;23;20465;-88
2023/07/14 11:06:57;;;;;;;5.68;2.30;;;;;;;24.49;41.84;99802.13;6068378;23;20022;-88
2023/07/14 11:09:24;;;;;;;5.47;2.22;;;;;;;24.54;41.85;99809.59;6046475;23;25429;-88
2023/07/14 11:11:58;;;;;;;4.93;2.10;;;;;;;24.57;41.93;99804.50;6070138;23;20390;-88
2023/07/14 11:14:54;;;;;;;3.50;1.85;;;;;;;24.56;40.95;99797.44;6092679;23;20022;-88
2023/07/14 11:17:41;;;;;;;3.22;2.13;;;;;;;24.58;41.21;99780.94;6044656;23;20429;-89
2023/07/14 11:20:24;;;;;;;3.90;2.00;;;;;;;24.63;41.06;99787.31;6069005;23;20028;-88
2023/07/14 11:23:00;;;;;;;2.58;1.83;;;;;;;24.62;40.45;99782.09;6067656;23;20025;-88
2023/07/14 11:25:39;;;;;;;3.55;1.98;;;;;;;24.51;40.70;99770.16;6069554;23;20034;-88
2023/07/14 11:28:25;;;;;;;3.33;2.20;;;;;;;24.57;41.22;99782.78;6045058;23;20022;-89
2023/07/14 11:30:55;;;;;;;4.45;2.17;;;;;;;24.56;41.08;99777.59;6068672;23;20472;-89
2023/07/14 11:33:27;;;;;;;3.58;2.15;;;;;;;24.60;41.32;99776.06;6068672;23;20024;-89
2023/07/14 11:36:03;;;;;;;;;;;;;;;24.52;41.49;99771.78;6069194;23;20046;-89
2023/07/14 11:38:54;;;;;;;4.75;2.50;;;;;;;24.71;40.91;99764.47;6093490;23;19924;-89
2023/07/14 11:41:22;;;;;;;4.15;2.40;;;;;;;24.75;40.65;99759.38;6068063;23;20395;-89
2023/07/14 11:43:49;;;;;;;6.28;2.42;;;;;;;24.83;40.99;99767.19;6069022;23;20669;-89
2023/07/14 11:46:19;;;;;;;5.82;2.20;;;;;;;24.87;40.68;99769.22;6068816;23;20030;-88